createdAt,value
2022-10-01T00:01:01.131Z,87.50
2022-10-01T00:03:29.414Z,87.80
2022-10-01T00:06:02.972Z,87.50
2022-10-01T00:08:31.139Z,88.40
2022-10-01T00:11:00.876Z,87.80
2022-10-01T00:13:29.466Z,87.90
2022-10-01T00:15:56.676Z,88.50
2022-10-01T00:18:23.346Z,88.60
2022-10-01T00:20:50.002Z,89.20
2022-10-01T00:23:16.747Z,89.20
2022-10-01T00:25:43.750Z,88.70
2022-10-01T00:28:12.068Z,89.20
2022-10-01T00:30:45.699Z,89.20
2022-10-01T00:33:12.323Z,90.10
2022-10-01T00:35:38.966Z,90.10
2022-10-01T00:38:05.607Z,90.20
2022-10-01T00:40:32.246Z,90.00
2022-10-01T00:42:59.074Z,90.40
2022-10-01T00:45:25.750Z,90.30
2022-10-01T00:47:57.296Z,90.20
2022-10-01T00:50:33.205Z,90.50
2022-10-01T00:53:04.164Z,90.60
2022-10-01T00:55:39.653Z,90.50
2022-10-01T00:58:08.906Z,90.50
2022-10-01T01:00:37.552Z,90.50
2022-10-01T01:03:05.632Z,90.40
2022-10-01T01:05:32.541Z,90.50
2022-10-01T01:08:01.495Z,90.50
2022-10-01T01:10:40.402Z,90.30
2022-10-01T01:13:16.577Z,90.40
2022-10-01T01:16:07.391Z,90.40
2022-10-01T01:18:44.925Z,90.20
2022-10-01T01:21:34.763Z,90.20
2022-10-01T01:24:12.588Z,90.20
2022-10-01T01:26:55.417Z,90.50
2022-10-01T01:29:34.756Z,90.50
2022-10-01T01:32:13.996Z,90.40
2022-10-01T01:34:44.749Z,90.60
2022-10-01T01:37:15.472Z,90.70
2022-10-01T01:39:47.576Z,90.70
2022-10-01T01:42:21.382Z,90.80
2022-10-01T01:44:49.816Z,90.90
2022-10-01T01:47:22.405Z,91.00
2022-10-01T01:49:50.938Z,91.00
2022-10-01T01:52:18.040Z,91.10
2022-10-01T01:54:47.664Z,91.20
2022-10-01T01:57:17.175Z,91.20
2022-10-01T01:59:44.366Z,90.90
2022-10-01T02:02:25.150Z,90.80
2022-10-01T02:05:04.956Z,90.50
2022-10-01T02:07:42.862Z,90.70
2022-10-01T02:10:28.410Z,91.00
2022-10-01T02:13:24.149Z,90.90
2022-10-01T02:15:50.768Z,91.00
2022-10-01T02:18:42.350Z,90.90
2022-10-01T02:21:20.891Z,90.80
2022-10-01T02:24:19.204Z,91.00
2022-10-01T02:26:48.788Z,91.20
2022-10-01T02:29:18.444Z,91.20
2022-10-01T02:31:47.346Z,91.20
2022-10-01T02:34:19.395Z,91.10
2022-10-01T02:36:48.633Z,91.10
2022-10-01T02:39:17.270Z,91.10
2022-10-01T02:41:45.970Z,90.90
2022-10-01T02:44:22.944Z,90.90
2022-10-01T02:46:58.086Z,91.10
2022-10-01T02:49:30.378Z,91.60
2022-10-01T02:52:07.141Z,91.20
2022-10-01T02:54:44.819Z,91.20
2022-10-01T02:57:24.336Z,91.10
2022-10-01T02:59:51.932Z,91.00
2022-10-01T03:02:19.807Z,91.20
2022-10-01T03:04:49.780Z,91.30
2022-10-01T03:07:16.781Z,91.30
2022-10-01T03:09:43.438Z,91.40
2022-10-01T03:12:10.729Z,91.40
2022-10-01T03:14:39.278Z,91.10
2022-10-01T03:17:07.192Z,91.20
2022-10-01T03:19:34.007Z,91.00
2022-10-01T03:22:00.762Z,91.30
2022-10-01T03:24:27.667Z,91.10
2022-10-01T03:26:56.277Z,91.30
2022-10-01T03:29:23.900Z,91.50
2022-10-01T03:31:51.415Z,91.50
2022-10-01T03:34:18.140Z,91.30
2022-10-01T03:36:45.211Z,91.40
2022-10-01T03:39:11.836Z,91.30
2022-10-01T03:41:38.674Z,91.50
2022-10-01T03:44:05.324Z,91.60
2022-10-01T03:46:32.097Z,91.60
2022-10-01T03:49:00.784Z,91.50
2022-10-01T03:51:28.928Z,91.50
2022-10-01T03:53:56.670Z,91.40
2022-10-01T03:56:24.115Z,91.30
2022-10-01T03:58:51.267Z,91.50
2022-10-01T04:01:18.274Z,92.00
2022-10-01T04:03:44.978Z,91.50
2022-10-01T04:06:11.963Z,91.70
2022-10-01T04:08:38.980Z,91.50
2022-10-01T04:11:06.899Z,91.80
2022-10-01T04:13:34.612Z,91.80
2022-10-01T04:16:02.943Z,91.60
2022-10-01T04:18:29.723Z,91.60
2022-10-01T04:20:56.460Z,91.40
2022-10-01T04:23:23.376Z,91.50
2022-10-01T04:25:50.466Z,91.50
2022-10-01T04:28:17.467Z,91.40
2022-10-01T04:30:45.852Z,91.30
2022-10-01T04:33:15.020Z,91.40
2022-10-01T04:35:43.256Z,91.40
2022-10-01T04:38:17.068Z,91.60
2022-10-01T04:40:44.067Z,91.40
2022-10-01T04:43:13.267Z,91.30
2022-10-01T04:45:40.060Z,91.40
2022-10-01T04:48:06.732Z,91.50
2022-10-01T04:50:33.574Z,91.40
2022-10-01T04:53:00.333Z,91.50
2022-10-01T04:55:27.216Z,91.50
2022-10-01T04:57:54.038Z,91.60
2022-10-01T05:00:24.463Z,91.40
2022-10-01T05:02:51.511Z,91.50
2022-10-01T05:05:20.442Z,91.40
2022-10-01T05:07:47.718Z,91.40
2022-10-01T05:10:17.221Z,91.30
2022-10-01T05:12:44.241Z,91.20
2022-10-01T05:15:11.261Z,91.20
2022-10-01T05:17:38.018Z,91.10
2022-10-01T05:20:06.660Z,91.20
2022-10-01T05:22:33.701Z,91.20
2022-10-01T05:25:01.209Z,91.30
2022-10-01T05:27:28.087Z,91.20
2022-10-01T05:29:54.834Z,91.30
2022-10-01T05:32:21.466Z,91.20
2022-10-01T05:34:53.284Z,91.00
2022-10-01T05:37:20.602Z,91.00
2022-10-01T05:39:47.498Z,91.00
2022-10-01T05:42:14.134Z,91.10
2022-10-01T05:44:46.924Z,91.00
2022-10-01T05:47:14.456Z,90.90
2022-10-01T05:49:44.808Z,91.10
2022-10-01T05:52:12.272Z,90.90
2022-10-01T05:54:39.211Z,90.80
2022-10-01T05:57:06.299Z,90.70
2022-10-01T05:59:32.960Z,90.80
2022-10-01T06:01:59.793Z,90.70
2022-10-01T06:04:26.945Z,90.80
2022-10-01T06:06:55.600Z,90.60
2022-10-01T06:09:22.430Z,90.70
2022-10-01T06:11:49.497Z,90.70
2022-10-01T06:14:16.745Z,90.50
2022-10-01T06:16:43.592Z,90.40
2022-10-01T06:19:10.467Z,90.50
2022-10-01T06:21:37.570Z,90.40
2022-10-01T06:24:05.195Z,90.50
2022-10-01T06:26:31.954Z,90.50
2022-10-01T06:28:58.572Z,90.50
2022-10-01T06:31:25.343Z,90.40
2022-10-01T06:33:52.058Z,90.40
2022-10-01T06:36:18.696Z,90.40
2022-10-01T06:38:48.843Z,90.30
2022-10-01T06:41:15.788Z,90.20
2022-10-01T06:43:42.422Z,90.20
2022-10-01T06:46:09.199Z,90.10
2022-10-01T06:48:36.663Z,90.10
2022-10-01T06:51:04.459Z,90.10
2022-10-01T06:53:31.859Z,90.30
2022-10-01T06:56:07.841Z,90.60
2022-10-01T06:58:34.953Z,90.50
2022-10-01T07:01:03.033Z,90.60
2022-10-01T07:03:31.143Z,90.60
2022-10-01T07:06:02.879Z,90.60
2022-10-01T07:08:29.860Z,90.60
2022-10-01T07:11:02.417Z,90.60
2022-10-01T07:13:29.253Z,90.70
2022-10-01T07:15:55.923Z,90.70
2022-10-01T07:18:22.658Z,90.50
2022-10-01T07:20:49.335Z,90.30
2022-10-01T07:23:16.446Z,90.20
2022-10-01T07:25:44.062Z,90.10
2022-10-01T07:28:20.717Z,90.10
2022-10-01T07:30:58.242Z,90.20
2022-10-01T07:33:25.153Z,90.20
2022-10-01T07:35:51.822Z,90.10
2022-10-01T07:38:18.444Z,90.20
2022-10-01T07:40:50.102Z,90.40
2022-10-01T07:43:16.641Z,90.40
2022-10-01T07:45:47.007Z,90.70
2022-10-01T07:48:16.831Z,90.70
2022-10-01T07:50:45.268Z,90.50
2022-10-01T07:53:12.306Z,90.20
2022-10-01T07:55:39.002Z,89.80
2022-10-01T07:58:05.645Z,89.30
2022-10-01T08:00:33.675Z,88.70
2022-10-01T08:03:00.561Z,88.50
2022-10-01T08:05:29.724Z,88.30
2022-10-01T08:08:01.052Z,88.50
2022-10-01T08:10:28.478Z,89.00
2022-10-01T08:13:08.258Z,89.80
2022-10-01T08:15:35.763Z,89.00
2022-10-01T08:18:04.071Z,89.30
2022-10-01T08:20:30.952Z,88.70
2022-10-01T08:23:05.197Z,88.60
2022-10-01T08:25:32.028Z,88.40
2022-10-01T08:28:00.199Z,88.20
2022-10-01T08:30:27.534Z,88.00
2022-10-01T08:32:55.978Z,88.10
2022-10-01T08:35:23.997Z,88.50
2022-10-01T08:37:50.860Z,88.40
2022-10-01T08:40:20.423Z,89.00
2022-10-01T08:42:59.968Z,89.10
2022-10-01T08:45:33.038Z,87.40
2022-10-01T08:48:12.900Z,86.80
2022-10-01T08:51:03.188Z,87.60
2022-10-01T08:54:12.869Z,88.40
2022-10-01T08:56:47.494Z,88.70
2022-10-01T08:59:40.918Z,87.30
2022-10-01T09:02:42.097Z,85.90
2022-10-01T09:05:41.748Z,86.50
2022-10-01T09:08:43.589Z,86.40
2022-10-01T09:11:16.281Z,86.40
2022-10-01T09:13:59.674Z,84.50
2022-10-01T09:16:34.973Z,85.20
2022-10-01T09:19:31.507Z,84.00
2022-10-01T09:22:10.571Z,82.80
2022-10-01T09:24:59.238Z,83.50
2022-10-01T09:27:28.133Z,83.20
2022-10-01T09:30:00.742Z,83.00
2022-10-01T09:32:42.955Z,81.00
2022-10-01T09:35:30.929Z,82.70
2022-10-01T09:38:09.860Z,81.70
2022-10-01T09:40:54.795Z,81.20
2022-10-01T09:43:28.831Z,80.70
2022-10-01T09:45:56.073Z,79.40
2022-10-01T09:48:40.644Z,79.90
2022-10-01T09:51:14.373Z,78.00
2022-10-01T09:53:47.589Z,78.40
2022-10-01T09:56:24.338Z,75.90
2022-10-01T09:58:55.171Z,77.70
2022-10-01T10:01:50.068Z,77.20
2022-10-01T10:04:23.303Z,77.90
2022-10-01T10:06:51.744Z,79.20
2022-10-01T10:09:24.324Z,80.70
2022-10-01T10:11:51.636Z,79.60
2022-10-01T10:14:31.776Z,79.10
2022-10-01T10:17:05.996Z,78.60
2022-10-01T10:19:33.310Z,77.90
2022-10-01T10:22:23.385Z,77.80
2022-10-01T10:24:50.899Z,79.00
2022-10-01T10:27:26.892Z,77.50
2022-10-01T10:30:14.233Z,77.70
2022-10-01T10:32:41.798Z,78.20
2022-10-01T10:35:14.137Z,75.50
2022-10-01T10:37:48.500Z,74.50
2022-10-01T10:40:24.542Z,76.60
2022-10-01T10:42:56.814Z,76.30
2022-10-01T10:45:46.930Z,74.00
2022-10-01T10:48:18.539Z,72.30
2022-10-01T10:50:46.296Z,73.30
2022-10-01T10:53:22.302Z,73.70
2022-10-01T10:56:01.134Z,74.20
2022-10-01T10:58:40.310Z,72.20
2022-10-01T11:01:13.187Z,71.50
2022-10-01T11:03:48.514Z,73.20
2022-10-01T11:06:18.667Z,73.10
2022-10-01T11:08:57.175Z,73.00
2022-10-01T11:12:05.168Z,71.20
2022-10-01T11:14:51.456Z,69.80
2022-10-01T11:17:59.149Z,69.60
2022-10-01T11:20:51.862Z,69.40
2022-10-01T11:23:28.046Z,70.30
2022-10-01T11:26:20.910Z,70.20
2022-10-01T11:29:18.266Z,70.70
2022-10-01T11:32:19.311Z,67.90
2022-10-01T11:35:08.941Z,69.20
2022-10-01T11:37:50.448Z,69.10
2022-10-01T11:40:38.544Z,68.20
2022-10-01T11:43:16.630Z,67.70
2022-10-01T11:45:57.093Z,67.00
2022-10-01T11:49:02.301Z,66.60
2022-10-01T11:51:42.205Z,67.10
2022-10-01T11:54:14.749Z,67.60
2022-10-01T11:57:06.037Z,66.90
2022-10-01T11:59:55.254Z,65.30
2022-10-01T12:03:07.010Z,64.90
2022-10-01T12:05:34.950Z,66.90
2022-10-01T12:08:21.968Z,66.60
2022-10-01T12:10:58.760Z,67.00
2022-10-01T12:13:32.711Z,67.10
2022-10-01T12:16:50.358Z,67.80
2022-10-01T12:19:25.252Z,66.10
2022-10-01T12:21:56.002Z,66.00
2022-10-01T12:24:31.741Z,65.40
2022-10-01T12:27:11.637Z,66.10
2022-10-01T12:30:06.314Z,65.50
2022-10-01T12:32:35.987Z,65.80
2022-10-01T12:35:17.680Z,65.00
2022-10-01T12:38:02.705Z,64.00
2022-10-01T12:40:40.520Z,63.40
2022-10-01T12:43:07.110Z,63.80
2022-10-01T12:45:55.690Z,63.70
2022-10-01T12:48:27.278Z,62.40
2022-10-01T12:50:56.909Z,64.20
2022-10-01T12:53:43.609Z,64.10
2022-10-01T12:56:21.523Z,63.40
2022-10-01T12:59:24.872Z,64.30
2022-10-01T13:02:03.660Z,63.60
2022-10-01T13:04:51.410Z,61.80
2022-10-01T13:07:42.593Z,61.90
2022-10-01T13:10:21.582Z,61.50
2022-10-01T13:13:01.176Z,62.60
2022-10-01T13:15:37.969Z,62.00
2022-10-01T13:18:19.978Z,62.00
2022-10-01T13:21:08.945Z,62.00
2022-10-01T13:23:47.163Z,61.80
2022-10-01T13:26:37.060Z,61.20
2022-10-01T13:29:40.923Z,61.40
2022-10-01T13:32:37.277Z,62.40
2022-10-01T13:35:24.612Z,62.30
2022-10-01T13:37:51.525Z,62.40
2022-10-01T13:40:30.429Z,61.10
2022-10-01T13:43:07.570Z,61.30
2022-10-01T13:45:44.888Z,60.60
2022-10-01T13:48:11.513Z,61.00
2022-10-01T13:51:13.838Z,60.70
2022-10-01T13:53:43.559Z,60.00
2022-10-01T13:56:12.989Z,60.20
2022-10-01T13:58:40.801Z,60.80
2022-10-01T14:01:47.677Z,60.70
2022-10-01T14:04:34.309Z,60.30
2022-10-01T14:07:16.236Z,60.70
2022-10-01T14:09:50.221Z,61.20
2022-10-01T14:12:44.523Z,60.80
2022-10-01T14:15:39.124Z,61.00
2022-10-01T14:18:14.447Z,60.90
2022-10-01T14:21:02.145Z,61.10
2022-10-01T14:23:54.149Z,61.10
2022-10-01T14:26:43.162Z,61.60
2022-10-01T14:29:35.417Z,62.20
2022-10-01T14:32:17.062Z,61.60
2022-10-01T14:34:43.628Z,61.70
2022-10-01T14:37:17.295Z,61.60
2022-10-01T14:39:44.288Z,61.60
2022-10-01T14:42:17.097Z,61.80
2022-10-01T14:44:46.902Z,62.20
2022-10-01T14:47:25.817Z,62.10
2022-10-01T14:49:54.452Z,61.80
2022-10-01T14:52:24.033Z,62.30
2022-10-01T14:54:56.506Z,62.00
2022-10-01T14:57:28.925Z,61.30
2022-10-01T14:59:57.475Z,60.70
2022-10-01T15:02:26.346Z,61.40
2022-10-01T15:04:56.472Z,61.50
2022-10-01T15:07:25.393Z,61.80
2022-10-01T15:09:52.229Z,61.80
2022-10-01T15:12:21.660Z,61.80
2022-10-01T15:14:53.946Z,61.60
2022-10-01T15:17:24.905Z,61.50
2022-10-01T15:19:54.785Z,61.70
2022-10-01T15:22:29.848Z,61.70
2022-10-01T15:25:01.340Z,61.60
2022-10-01T15:27:28.374Z,62.00
2022-10-01T15:29:58.674Z,62.50
2022-10-01T15:32:27.976Z,62.30
2022-10-01T15:35:00.947Z,62.60
2022-10-01T15:37:30.917Z,62.70
2022-10-01T15:39:58.612Z,62.90
2022-10-01T15:42:34.497Z,62.60
2022-10-01T15:45:20.308Z,62.70
2022-10-01T15:47:52.241Z,63.30
2022-10-01T15:50:32.360Z,63.40
2022-10-01T15:53:19.422Z,63.60
2022-10-01T15:55:52.349Z,63.60
2022-10-01T15:58:32.412Z,63.80
2022-10-01T16:01:10.431Z,63.80
2022-10-01T16:03:48.400Z,64.00
2022-10-01T16:06:34.524Z,63.90
2022-10-01T16:09:06.932Z,63.70
2022-10-01T16:12:01.978Z,63.90
2022-10-01T16:14:30.668Z,63.40
2022-10-01T16:17:19.032Z,63.80
2022-10-01T16:19:51.358Z,63.70
2022-10-01T16:22:20.990Z,63.60
2022-10-01T16:24:50.406Z,63.90
2022-10-01T16:27:21.693Z,64.10
2022-10-01T16:30:26.966Z,64.30
2022-10-01T16:32:54.954Z,64.30
2022-10-01T16:35:26.802Z,64.60
2022-10-01T16:37:56.069Z,64.90
2022-10-01T16:40:25.972Z,65.00
2022-10-01T16:42:53.024Z,65.00
2022-10-01T16:45:24.991Z,65.00
2022-10-01T16:47:52.728Z,65.20
2022-10-01T16:50:21.592Z,65.40
2022-10-01T16:52:51.892Z,65.50
2022-10-01T16:55:30.570Z,65.90
2022-10-01T16:57:57.225Z,65.70
2022-10-01T17:00:26.069Z,65.90
2022-10-01T17:02:54.161Z,66.00
2022-10-01T17:05:28.236Z,66.00
2022-10-01T17:07:58.067Z,66.20
2022-10-01T17:10:24.842Z,67.00
2022-10-01T17:12:51.491Z,66.70
2022-10-01T17:15:26.359Z,66.90
2022-10-01T17:17:54.622Z,66.80
2022-10-01T17:20:22.283Z,67.00
2022-10-01T17:22:49.774Z,67.10
2022-10-01T17:25:31.872Z,67.20
2022-10-01T17:27:59.701Z,67.40
2022-10-01T17:30:29.114Z,67.40
2022-10-01T17:32:57.158Z,67.60
2022-10-01T17:35:24.029Z,67.80
2022-10-01T17:37:50.666Z,68.00
2022-10-01T17:40:17.383Z,68.30
2022-10-01T17:42:44.093Z,68.40
2022-10-01T17:45:13.368Z,68.50
2022-10-01T17:47:47.957Z,68.70
2022-10-01T17:50:15.077Z,68.80
2022-10-01T17:52:42.191Z,69.00
2022-10-01T17:55:09.605Z,69.30
2022-10-01T17:57:36.295Z,69.30
2022-10-01T18:00:03.765Z,69.40
2022-10-01T18:02:41.586Z,69.80
2022-10-01T18:05:12.082Z,70.10
2022-10-01T18:07:39.088Z,70.40
2022-10-01T18:10:08.456Z,70.40
2022-10-01T18:12:35.143Z,70.50
2022-10-01T18:15:02.143Z,70.90
2022-10-01T18:17:29.226Z,71.00
2022-10-01T18:19:57.025Z,71.00
2022-10-01T18:22:23.704Z,70.90
2022-10-01T18:24:50.421Z,71.00
2022-10-01T18:27:17.319Z,71.10
2022-10-01T18:29:44.006Z,71.40
2022-10-01T18:32:21.086Z,71.70
2022-10-01T18:35:01.946Z,71.50
2022-10-01T18:37:40.405Z,71.90
2022-10-01T18:40:29.048Z,71.90
2022-10-01T18:43:17.564Z,71.80
2022-10-01T18:45:44.354Z,71.70
2022-10-01T18:48:54.851Z,72.00
2022-10-01T18:51:54.973Z,71.90
2022-10-01T18:54:53.391Z,71.90
2022-10-01T18:57:37.281Z,72.10
2022-10-01T19:00:11.853Z,72.50
2022-10-01T19:03:05.882Z,72.40
2022-10-01T19:06:07.143Z,72.40
2022-10-01T19:08:39.856Z,72.70
2022-10-01T19:11:41.341Z,72.60
2022-10-01T19:14:29.039Z,72.80
2022-10-01T19:17:29.521Z,72.90
2022-10-01T19:20:04.773Z,72.90
2022-10-01T19:23:16.975Z,73.10
2022-10-01T19:25:48.638Z,73.20
2022-10-01T19:28:39.485Z,73.10
2022-10-01T19:31:37.321Z,73.60
2022-10-01T19:34:21.827Z,73.60
2022-10-01T19:36:59.706Z,73.60
2022-10-01T19:39:30.217Z,73.70
2022-10-01T19:42:01.334Z,73.70
2022-10-01T19:44:44.754Z,73.90
2022-10-01T19:47:38.341Z,73.60
2022-10-01T19:50:18.680Z,73.60
2022-10-01T19:52:50.419Z,73.70
2022-10-01T19:55:19.389Z,73.80
2022-10-01T19:57:46.983Z,73.60
2022-10-01T20:00:20.075Z,74.10
2022-10-01T20:03:01.197Z,73.90
2022-10-01T20:05:29.350Z,73.70
2022-10-01T20:08:16.188Z,74.00
2022-10-01T20:10:55.024Z,74.30
2022-10-01T20:13:26.537Z,74.20
2022-10-01T20:16:16.251Z,74.20
2022-10-01T20:19:11.094Z,74.20
2022-10-01T20:21:59.046Z,74.10
2022-10-01T20:24:31.721Z,74.20
2022-10-01T20:27:13.440Z,74.30
2022-10-01T20:29:50.780Z,74.20
2022-10-01T20:32:56.036Z,74.30
2022-10-01T20:35:48.217Z,74.20
2022-10-01T20:38:39.618Z,74.20
2022-10-01T20:41:14.597Z,74.60
2022-10-01T20:43:49.269Z,74.60
2022-10-01T20:46:40.060Z,74.70
2022-10-01T20:49:30.930Z,74.60
2022-10-01T20:52:22.848Z,75.60
2022-10-01T20:54:57.930Z,75.80
2022-10-01T20:57:33.255Z,75.70
2022-10-01T21:00:08.221Z,75.60
2022-10-01T21:02:52.842Z,75.70
2022-10-01T21:05:27.466Z,75.70
2022-10-01T21:08:10.271Z,75.90
2022-10-01T21:10:48.056Z,75.80
2022-10-01T21:13:29.700Z,76.00
2022-10-01T21:16:14.676Z,75.90
2022-10-01T21:18:59.803Z,76.00
2022-10-01T21:21:47.925Z,76.10
2022-10-01T21:24:29.501Z,76.20
2022-10-01T21:26:56.128Z,76.30
2022-10-01T21:29:48.848Z,76.40
2022-10-01T21:32:30.362Z,76.50
2022-10-01T21:35:12.310Z,76.50
2022-10-01T21:37:54.858Z,76.60
2022-10-01T21:40:47.483Z,76.70
2022-10-01T21:43:32.072Z,77.60
2022-10-01T21:46:22.801Z,77.70
2022-10-01T21:49:30.672Z,78.80
2022-10-01T21:52:31.219Z,78.70
2022-10-01T21:55:17.271Z,79.80
2022-10-01T21:57:51.399Z,79.60
2022-10-01T22:00:28.595Z,79.70
2022-10-01T22:03:22.766Z,79.40
2022-10-01T22:06:17.772Z,79.20
2022-10-01T22:09:06.254Z,80.60
2022-10-01T22:11:37.021Z,79.80
2022-10-01T22:14:14.549Z,79.60
2022-10-01T22:16:49.963Z,80.40
2022-10-01T22:19:25.597Z,80.20
2022-10-01T22:21:59.420Z,80.20
2022-10-01T22:24:36.346Z,80.00
2022-10-01T22:27:16.573Z,79.90
2022-10-01T22:29:50.439Z,80.90
2022-10-01T22:32:20.814Z,81.00
2022-10-01T22:34:55.639Z,80.90
2022-10-01T22:37:30.681Z,82.20
2022-10-01T22:40:21.089Z,83.70
2022-10-01T22:43:01.494Z,83.90
2022-10-01T22:45:45.969Z,85.30
2022-10-01T22:48:33.181Z,83.80
2022-10-01T22:51:29.675Z,83.40
2022-10-01T22:54:24.922Z,83.10
2022-10-01T22:56:59.651Z,83.20
2022-10-01T22:59:32.151Z,83.90
2022-10-01T23:02:17.130Z,83.20
2022-10-01T23:05:01.627Z,82.80
2022-10-01T23:07:47.429Z,83.10
2022-10-01T23:10:24.130Z,83.00
2022-10-01T23:12:50.731Z,84.30
2022-10-01T23:15:46.689Z,83.10
2022-10-01T23:18:46.025Z,83.90
2022-10-01T23:21:20.633Z,83.60
2022-10-01T23:24:25.130Z,83.20
2022-10-01T23:27:07.478Z,82.60
2022-10-01T23:29:49.360Z,83.00
2022-10-01T23:32:25.319Z,82.80
2022-10-01T23:35:20.589Z,82.40
2022-10-01T23:38:23.516Z,82.50
2022-10-01T23:40:54.558Z,82.30
2022-10-01T23:43:28.883Z,82.30
2022-10-01T23:46:29.435Z,82.20
2022-10-01T23:49:07.004Z,82.50
2022-10-01T23:51:52.140Z,82.20
2022-10-01T23:55:17.896Z,82.00
2022-10-01T23:57:47.165Z,82.20
